sensor_id;sensor_type;location;lat;lon;timestamp;temperature;humidity
48212;DHT22;34000;48.772;9.162;2023-01-29T00:01:53;7.20;52.90
48212;DHT22;34000;48.772;9.162;2023-01-29T00:04:19;7.20;52.80
48212;DHT22;34000;48.772;9.162;2023-01-29T00:06:45;7.20;52.80
48212;DHT22;34000;48.772;9.162;2023-01-29T00:09:10;7.20;52.70
48212;DHT22;34000;48.772;9.162;2023-01-29T00:11:37;7.20;52.70
48212;DHT22;34000;48.772;9.162;2023-01-29T00:14:02;7.20;52.70
48212;DHT22;34000;48.772;9.162;2023-01-29T00:16:28;7.20;52.60
48212;DHT22;34000;48.772;9.162;2023-01-29T00:18:53;7.20;52.60
48212;DHT22;34000;48.772;9.162;2023-01-29T00:21:19;7.20;52.60
48212;DHT22;34000;48.772;9.162;2023-01-29T00:23:46;7.20;52.60
48212;DHT22;34000;48.772;9.162;2023-01-29T00:26:12;7.20;52.60
48212;DHT22;34000;48.772;9.162;2023-01-29T00:28:38;7.30;52.60
48212;DHT22;34000;48.772;9.162;2023-01-29T00:31:15;7.20;52.50
48212;DHT22;34000;48.772;9.162;2023-01-29T00:33:41;7.20;52.50
48212;DHT22;34000;48.772;9.162;2023-01-29T00:36:07;7.20;52.50
48212;DHT22;34000;48.772;9.162;2023-01-29T00:38:33;7.20;52.50
48212;DHT22;34000;48.772;9.162;2023-01-29T00:41:12;7.20;52.50
48212;DHT22;34000;48.772;9.162;2023-01-29T00:43:59;7.20;52.50
48212;DHT22;34000;48.772;9.162;2023-01-29T00:46:43;7.20;52.50
48212;DHT22;34000;48.772;9.162;2023-01-29T00:49:09;7.20;52.40
48212;DHT22;34000;48.772;9.162;2023-01-29T00:51:35;7.20;52.40
48212;DHT22;34000;48.772;9.162;2023-01-29T00:54:00;7.20;52.40
48212;DHT22;34000;48.772;9.162;2023-01-29T00:56:26;7.20;52.40
48212;DHT22;34000;48.772;9.162;2023-01-29T00:58:52;7.20;52.40
48212;DHT22;34000;48.772;9.162;2023-01-29T01:01:18;7.20;52.40
48212;DHT22;34000;48.772;9.162;2023-01-29T01:04:07;7.20;52.40
48212;DHT22;34000;48.772;9.162;2023-01-29T01:06:33;7.20;52.40
48212;DHT22;34000;48.772;9.162;2023-01-29T01:09:00;7.20;52.40
48212;DHT22;34000;48.772;9.162;2023-01-29T01:11:45;7.20;52.40
48212;DHT22;34000;48.772;9.162;2023-01-29T01:14:10;7.20;52.30
48212;DHT22;34000;48.772;9.162;2023-01-29T01:16:35;7.20;52.30
48212;DHT22;34000;48.772;9.162;2023-01-29T01:19:02;7.20;52.40
48212;DHT22;34000;48.772;9.162;2023-01-29T01:21:27;7.20;52.30
48212;DHT22;34000;48.772;9.162;2023-01-29T01:23:53;7.20;52.30
48212;DHT22;34000;48.772;9.162;2023-01-29T01:26:18;7.20;52.30
48212;DHT22;34000;48.772;9.162;2023-01-29T01:28:44;7.20;52.30
48212;DHT22;34000;48.772;9.162;2023-01-29T01:31:09;7.20;52.30
48212;DHT22;34000;48.772;9.162;2023-01-29T01:33:35;7.20;52.30
48212;DHT22;34000;48.772;9.162;2023-01-29T01:36:02;7.20;52.30
48212;DHT22;34000;48.772;9.162;2023-01-29T01:38:27;7.20;52.30
48212;DHT22;34000;48.772;9.162;2023-01-29T01:40:53;7.10;52.20
48212;DHT22;34000;48.772;9.162;2023-01-29T01:43:18;7.10;52.20
48212;DHT22;34000;48.772;9.162;2023-01-29T01:45:44;7.10;52.30
48212;DHT22;34000;48.772;9.162;2023-01-29T01:48:23;7.10;52.20
48212;DHT22;34000;48.772;9.162;2023-01-29T01:53:20;7.10;52.20
48212;DHT22;34000;48.772;9.162;2023-01-29T01:55:51;7.20;52.20
48212;DHT22;34000;48.772;9.162;2023-01-29T01:58:29;7.20;52.20
48212;DHT22;34000;48.772;9.162;2023-01-29T02:00:56;7.20;52.20
48212;DHT22;34000;48.772;9.162;2023-01-29T02:03:21;7.20;52.10
48212;DHT22;34000;48.772;9.162;2023-01-29T02:06:06;7.10;52.10
48212;DHT22;34000;48.772;9.162;2023-01-29T02:08:53;7.10;52.10
48212;DHT22;34000;48.772;9.162;2023-01-29T02:11:38;7.10;52.20
48212;DHT22;34000;48.772;9.162;2023-01-29T02:14:04;7.10;52.20
48212;DHT22;34000;48.772;9.162;2023-01-29T02:16:29;7.10;52.20
48212;DHT22;34000;48.772;9.162;2023-01-29T02:18:55;7.00;52.10
48212;DHT22;34000;48.772;9.162;2023-01-29T02:24:17;7.00;52.10
48212;DHT22;34000;48.772;9.162;2023-01-29T02:34:29;7.00;52.00
48212;DHT22;34000;48.772;9.162;2023-01-29T02:37:17;7.00;52.00
48212;DHT22;34000;48.772;9.162;2023-01-29T02:39:51;6.90;52.00
48212;DHT22;34000;48.772;9.162;2023-01-29T02:42:21;6.90;52.00
48212;DHT22;34000;48.772;9.162;2023-01-29T02:44:51;6.90;52.00
48212;DHT22;34000;48.772;9.162;2023-01-29T02:50:05;6.90;52.00
48212;DHT22;34000;48.772;9.162;2023-01-29T02:52:40;6.90;52.00
48212;DHT22;34000;48.772;9.162;2023-01-29T02:55:11;6.90;52.00
48212;DHT22;34000;48.772;9.162;2023-01-29T02:57:38;6.90;52.00
48212;DHT22;34000;48.772;9.162;2023-01-29T03:00:15;6.90;51.90
48212;DHT22;34000;48.772;9.162;2023-01-29T03:02:47;6.90;51.90
48212;DHT22;34000;48.772;9.162;2023-01-29T03:05:14;6.90;51.90
48212;DHT22;34000;48.772;9.162;2023-01-29T03:07:42;6.90;51.90
48212;DHT22;34000;48.772;9.162;2023-01-29T03:10:12;6.90;51.90
48212;DHT22;34000;48.772;9.162;2023-01-29T03:12:40;6.90;51.90
48212;DHT22;34000;48.772;9.162;2023-01-29T03:15:10;6.90;51.90
48212;DHT22;34000;48.772;9.162;2023-01-29T03:17:57;6.90;52.40
48212;DHT22;34000;48.772;9.162;2023-01-29T03:20:23;6.90;51.90
48212;DHT22;34000;48.772;9.162;2023-01-29T03:22:57;6.90;51.80
48212;DHT22;34000;48.772;9.162;2023-01-29T03:25:25;6.90;51.80
48212;DHT22;34000;48.772;9.162;2023-01-29T03:28:11;6.90;51.70
48212;DHT22;34000;48.772;9.162;2023-01-29T03:30:57;6.90;51.70
48212;DHT22;34000;48.772;9.162;2023-01-29T03:33:50;6.80;51.70
48212;DHT22;34000;48.772;9.162;2023-01-29T03:36:18;6.90;51.70
48212;DHT22;34000;48.772;9.162;2023-01-29T03:38:45;6.90;51.70
48212;DHT22;34000;48.772;9.162;2023-01-29T03:41:17;6.90;51.70
48212;DHT22;34000;48.772;9.162;2023-01-29T03:43:49;6.80;51.70
48212;DHT22;34000;48.772;9.162;2023-01-29T03:46:20;6.90;51.80
48212;DHT22;34000;48.772;9.162;2023-01-29T03:48:53;6.80;51.70
48212;DHT22;34000;48.772;9.162;2023-01-29T03:56:17;6.80;51.70
48212;DHT22;34000;48.772;9.162;2023-01-29T03:58:56;6.80;51.70
48212;DHT22;34000;48.772;9.162;2023-01-29T04:01:24;6.80;51.70
48212;DHT22;34000;48.772;9.162;2023-01-29T04:03:53;6.80;51.60
48212;DHT22;34000;48.772;9.162;2023-01-29T04:06:23;6.80;51.60
48212;DHT22;34000;48.772;9.162;2023-01-29T04:08:54;6.70;51.60
48212;DHT22;34000;48.772;9.162;2023-01-29T04:11:21;6.70;51.60
48212;DHT22;34000;48.772;9.162;2023-01-29T04:13:47;6.70;51.60
48212;DHT22;34000;48.772;9.162;2023-01-29T04:16:24;6.70;51.70
48212;DHT22;34000;48.772;9.162;2023-01-29T04:18:51;6.70;51.70
48212;DHT22;34000;48.772;9.162;2023-01-29T04:21:18;6.70;51.70
48212;DHT22;34000;48.772;9.162;2023-01-29T04:23:44;6.70;51.70
48212;DHT22;34000;48.772;9.162;2023-01-29T04:29:39;6.70;51.60
48212;DHT22;34000;48.772;9.162;2023-01-29T04:31:56;6.70;51.60
48212;DHT22;34000;48.772;9.162;2023-01-29T04:34:26;6.70;51.60
48212;DHT22;34000;48.772;9.162;2023-01-29T04:44:50;6.70;51.60
48212;DHT22;34000;48.772;9.162;2023-01-29T04:47:37;6.70;51.60
48212;DHT22;34000;48.772;9.162;2023-01-29T05:00:23;6.70;51.60
48212;DHT22;34000;48.772;9.162;2023-01-29T05:02:51;6.60;51.60
48212;DHT22;34000;48.772;9.162;2023-01-29T05:05:17;6.60;51.60
48212;DHT22;34000;48.772;9.162;2023-01-29T05:07:44;6.60;51.60
48212;DHT22;34000;48.772;9.162;2023-01-29T05:10:10;6.60;51.50
48212;DHT22;34000;48.772;9.162;2023-01-29T05:12:37;6.60;51.50
48212;DHT22;34000;48.772;9.162;2023-01-29T05:15:03;6.60;51.50
48212;DHT22;34000;48.772;9.162;2023-01-29T05:17:32;6.60;51.50
48212;DHT22;34000;48.772;9.162;2023-01-29T05:19:58;6.70;51.50
48212;DHT22;34000;48.772;9.162;2023-01-29T05:22:23;6.70;51.40
48212;DHT22;34000;48.772;9.162;2023-01-29T05:24:49;6.70;51.40
48212;DHT22;34000;48.772;9.162;2023-01-29T05:27:19;6.60;51.30
48212;DHT22;34000;48.772;9.162;2023-01-29T05:30:04;6.60;51.30
48212;DHT22;34000;48.772;9.162;2023-01-29T05:32:30;6.60;51.30
48212;DHT22;34000;48.772;9.162;2023-01-29T05:34:55;6.70;51.40
48212;DHT22;34000;48.772;9.162;2023-01-29T05:37:21;6.60;51.40
48212;DHT22;34000;48.772;9.162;2023-01-29T05:39:46;6.60;51.30
48212;DHT22;34000;48.772;9.162;2023-01-29T05:42:12;6.60;51.30
48212;DHT22;34000;48.772;9.162;2023-01-29T05:44:37;6.60;51.30
48212;DHT22;34000;48.772;9.162;2023-01-29T05:47:03;6.60;51.30
48212;DHT22;34000;48.772;9.162;2023-01-29T05:49:28;6.60;51.30
48212;DHT22;34000;48.772;9.162;2023-01-29T05:51:54;6.60;51.30
48212;DHT22;34000;48.772;9.162;2023-01-29T05:54:19;6.60;51.40
48212;DHT22;34000;48.772;9.162;2023-01-29T05:56:45;6.60;51.30
48212;DHT22;34000;48.772;9.162;2023-01-29T05:59:10;6.60;51.30
48212;DHT22;34000;48.772;9.162;2023-01-29T06:01:36;6.60;51.30
48212;DHT22;34000;48.772;9.162;2023-01-29T06:04:01;6.60;51.30
48212;DHT22;34000;48.772;9.162;2023-01-29T06:06:27;6.60;51.30
48212;DHT22;34000;48.772;9.162;2023-01-29T06:08:52;6.60;51.20
48212;DHT22;34000;48.772;9.162;2023-01-29T06:11:18;6.60;51.20
48212;DHT22;34000;48.772;9.162;2023-01-29T06:13:44;6.60;51.20
48212;DHT22;34000;48.772;9.162;2023-01-29T06:16:11;6.60;51.20
48212;DHT22;34000;48.772;9.162;2023-01-29T06:18:37;6.60;51.20
48212;DHT22;34000;48.772;9.162;2023-01-29T06:21:03;6.60;51.20
48212;DHT22;34000;48.772;9.162;2023-01-29T06:23:29;6.60;51.20
48212;DHT22;34000;48.772;9.162;2023-01-29T06:26:00;6.60;51.10
48212;DHT22;34000;48.772;9.162;2023-01-29T06:28:26;6.60;51.20
48212;DHT22;34000;48.772;9.162;2023-01-29T06:30:52;6.60;51.20
48212;DHT22;34000;48.772;9.162;2023-01-29T06:33:17;6.60;51.20
48212;DHT22;34000;48.772;9.162;2023-01-29T06:35:43;6.60;51.20
48212;DHT22;34000;48.772;9.162;2023-01-29T06:38:08;6.60;51.20
48212;DHT22;34000;48.772;9.162;2023-01-29T06:40:33;6.60;51.20
48212;DHT22;34000;48.772;9.162;2023-01-29T06:42:59;6.60;51.20
48212;DHT22;34000;48.772;9.162;2023-01-29T06:45:25;6.60;51.20
48212;DHT22;34000;48.772;9.162;2023-01-29T06:47:50;6.60;51.10
48212;DHT22;34000;48.772;9.162;2023-01-29T06:50:16;6.60;51.10
48212;DHT22;34000;48.772;9.162;2023-01-29T06:52:41;6.60;51.10
48212;DHT22;34000;48.772;9.162;2023-01-29T06:55:07;6.60;51.10
48212;DHT22;34000;48.772;9.162;2023-01-29T06:57:32;6.60;51.10
48212;DHT22;34000;48.772;9.162;2023-01-29T06:59:58;6.50;51.70
48212;DHT22;34000;48.772;9.162;2023-01-29T07:02:23;6.50;51.20
48212;DHT22;34000;48.772;9.162;2023-01-29T07:04:49;6.50;51.20
48212;DHT22;34000;48.772;9.162;2023-01-29T07:07:14;6.50;51.20
48212;DHT22;34000;48.772;9.162;2023-01-29T07:09:40;6.60;51.20
48212;DHT22;34000;48.772;9.162;2023-01-29T07:12:06;6.60;51.20
48212;DHT22;34000;48.772;9.162;2023-01-29T07:14:32;6.60;51.20
48212;DHT22;34000;48.772;9.162;2023-01-29T07:16:58;6.60;51.10
48212;DHT22;34000;48.772;9.162;2023-01-29T07:19:23;6.60;51.10
48212;DHT22;34000;48.772;9.162;2023-01-29T07:21:49;6.60;51.00
48212;DHT22;34000;48.772;9.162;2023-01-29T07:24:14;6.60;51.10
48212;DHT22;34000;48.772;9.162;2023-01-29T07:26:40;6.60;51.10
48212;DHT22;34000;48.772;9.162;2023-01-29T07:29:06;6.60;51.20
48212;DHT22;34000;48.772;9.162;2023-01-29T07:31:31;6.60;51.10
48212;DHT22;34000;48.772;9.162;2023-01-29T07:33:57;6.60;51.10
48212;DHT22;34000;48.772;9.162;2023-01-29T07:36:22;6.60;51.10
48212;DHT22;34000;48.772;9.162;2023-01-29T07:38:48;6.60;51.00
48212;DHT22;34000;48.772;9.162;2023-01-29T07:41:14;6.60;51.00
48212;DHT22;34000;48.772;9.162;2023-01-29T07:43:40;6.70;51.00
48212;DHT22;34000;48.772;9.162;2023-01-29T07:46:05;6.70;51.00
48212;DHT22;34000;48.772;9.162;2023-01-29T07:48:31;6.70;50.90
48212;DHT22;34000;48.772;9.162;2023-01-29T07:50:56;6.70;50.90
48212;DHT22;34000;48.772;9.162;2023-01-29T07:53:23;6.70;50.90
48212;DHT22;34000;48.772;9.162;2023-01-29T07:55:48;6.80;50.80
48212;DHT22;34000;48.772;9.162;2023-01-29T07:58:14;6.80;50.80
48212;DHT22;34000;48.772;9.162;2023-01-29T08:00:40;6.80;50.80
48212;DHT22;34000;48.772;9.162;2023-01-29T08:03:10;6.80;50.80
48212;DHT22;34000;48.772;9.162;2023-01-29T08:05:36;6.80;50.70
48212;DHT22;34000;48.772;9.162;2023-01-29T08:08:01;6.80;50.80
48212;DHT22;34000;48.772;9.162;2023-01-29T08:10:27;6.80;50.70
48212;DHT22;34000;48.772;9.162;2023-01-29T08:12:54;6.80;50.80
48212;DHT22;34000;48.772;9.162;2023-01-29T08:15:19;6.80;50.80
48212;DHT22;34000;48.772;9.162;2023-01-29T08:17:45;6.80;50.70
48212;DHT22;34000;48.772;9.162;2023-01-29T08:20:10;6.80;50.70
48212;DHT22;34000;48.772;9.162;2023-01-29T08:22:36;6.90;50.80
48212;DHT22;34000;48.772;9.162;2023-01-29T08:25:01;6.90;50.70
48212;DHT22;34000;48.772;9.162;2023-01-29T08:27:27;6.90;50.60
48212;DHT22;34000;48.772;9.162;2023-01-29T08:29:52;6.90;50.60
48212;DHT22;34000;48.772;9.162;2023-01-29T08:32:18;6.90;50.50
48212;DHT22;34000;48.772;9.162;2023-01-29T08:34:43;6.90;50.50
48212;DHT22;34000;48.772;9.162;2023-01-29T08:37:09;6.90;50.50
48212;DHT22;34000;48.772;9.162;2023-01-29T08:39:35;6.90;50.50
48212;DHT22;34000;48.772;9.162;2023-01-29T08:42:00;7.00;50.50
48212;DHT22;34000;48.772;9.162;2023-01-29T08:44:26;7.00;50.50
48212;DHT22;34000;48.772;9.162;2023-01-29T08:46:51;7.00;50.40
48212;DHT22;34000;48.772;9.162;2023-01-29T08:49:16;7.00;50.40
48212;DHT22;34000;48.772;9.162;2023-01-29T08:51:42;7.00;50.40
48212;DHT22;34000;48.772;9.162;2023-01-29T08:54:07;7.00;50.40
48212;DHT22;34000;48.772;9.162;2023-01-29T08:56:33;7.00;50.40
48212;DHT22;34000;48.772;9.162;2023-01-29T08:58:58;7.00;50.40
48212;DHT22;34000;48.772;9.162;2023-01-29T09:01:24;7.00;50.40
48212;DHT22;34000;48.772;9.162;2023-01-29T09:03:49;7.00;50.40
48212;DHT22;34000;48.772;9.162;2023-01-29T09:06:16;7.00;50.30
48212;DHT22;34000;48.772;9.162;2023-01-29T09:08:42;7.10;50.30
48212;DHT22;34000;48.772;9.162;2023-01-29T09:11:07;7.10;50.30
48212;DHT22;34000;48.772;9.162;2023-01-29T09:13:33;7.20;50.30
48212;DHT22;34000;48.772;9.162;2023-01-29T09:15:59;7.10;50.10
48212;DHT22;34000;48.772;9.162;2023-01-29T09:18:25;7.20;50.10
48212;DHT22;34000;48.772;9.162;2023-01-29T09:20:51;7.20;50.10
48212;DHT22;34000;48.772;9.162;2023-01-29T09:23:17;7.20;50.10
48212;DHT22;34000;48.772;9.162;2023-01-29T09:25:43;7.30;50.10
48212;DHT22;34000;48.772;9.162;2023-01-29T09:28:08;7.40;50.00
48212;DHT22;34000;48.772;9.162;2023-01-29T09:30:34;7.50;49.90
48212;DHT22;34000;48.772;9.162;2023-01-29T09:33:02;7.50;49.80
48212;DHT22;34000;48.772;9.162;2023-01-29T09:35:27;7.60;49.70
48212;DHT22;34000;48.772;9.162;2023-01-29T09:37:53;7.50;49.60
48212;DHT22;34000;48.772;9.162;2023-01-29T09:40:25;7.50;49.60
48212;DHT22;34000;48.772;9.162;2023-01-29T09:42:57;7.50;49.60
48212;DHT22;34000;48.772;9.162;2023-01-29T09:45:26;7.50;49.50
48212;DHT22;34000;48.772;9.162;2023-01-29T09:47:55;7.30;49.30
48212;DHT22;34000;48.772;9.162;2023-01-29T09:50:27;7.20;49.60
48212;DHT22;34000;48.772;9.162;2023-01-29T09:55:28;7.30;49.80
48212;DHT22;34000;48.772;9.162;2023-01-29T09:58:02;7.30;49.60
48212;DHT22;34000;48.772;9.162;2023-01-29T10:00:36;7.30;49.50
48212;DHT22;34000;48.772;9.162;2023-01-29T10:11:03;7.70;49.10
48212;DHT22;34000;48.772;9.162;2023-01-29T10:16:00;9.00;51.10
48212;DHT22;34000;48.772;9.162;2023-01-29T10:18:48;9.20;47.80
48212;DHT22;34000;48.772;9.162;2023-01-29T10:24:13;9.90;49.20
48212;DHT22;34000;48.772;9.162;2023-01-29T10:26:35;10.00;48.40
48212;DHT22;34000;48.772;9.162;2023-01-29T10:29:04;9.60;46.10
48212;DHT22;34000;48.772;9.162;2023-01-29T10:31:30;9.40;46.80
48212;DHT22;34000;48.772;9.162;2023-01-29T10:34:06;9.00;46.50
48212;DHT22;34000;48.772;9.162;2023-01-29T10:36:37;8.80;46.90
48212;DHT22;34000;48.772;9.162;2023-01-29T10:39:16;8.70;46.90
48212;DHT22;34000;48.772;9.162;2023-01-29T10:54:36;8.80;56.60
48212;DHT22;34000;48.772;9.162;2023-01-29T10:57:25;8.80;55.80
48212;DHT22;34000;48.772;9.162;2023-01-29T11:02:34;8.90;46.90
48212;DHT22;34000;48.772;9.162;2023-01-29T11:05:00;9.10;46.90
48212;DHT22;34000;48.772;9.162;2023-01-29T11:07:25;9.10;46.60
48212;DHT22;34000;48.772;9.162;2023-01-29T11:09:56;9.30;46.60
48212;DHT22;34000;48.772;9.162;2023-01-29T11:12:28;9.40;46.40
48212;DHT22;34000;48.772;9.162;2023-01-29T11:17:24;9.40;46.40
48212;DHT22;34000;48.772;9.162;2023-01-29T11:19:50;9.30;46.40
48212;DHT22;34000;48.772;9.162;2023-01-29T11:24:41;9.10;46.50
48212;DHT22;34000;48.772;9.162;2023-01-29T11:27:14;9.10;46.50
48212;DHT22;34000;48.772;9.162;2023-01-29T11:29:44;9.20;46.30
48212;DHT22;34000;48.772;9.162;2023-01-29T11:32:12;9.00;46.20
48212;DHT22;34000;48.772;9.162;2023-01-29T11:37:22;9.10;46.30
48212;DHT22;34000;48.772;9.162;2023-01-29T11:39:55;9.30;46.30
48212;DHT22;34000;48.772;9.162;2023-01-29T11:42:21;9.20;46.20
48212;DHT22;34000;48.772;9.162;2023-01-29T11:44:47;9.50;46.10
48212;DHT22;34000;48.772;9.162;2023-01-29T11:49:39;9.90;45.70
48212;DHT22;34000;48.772;9.162;2023-01-29T11:52:08;9.90;45.40
48212;DHT22;34000;48.772;9.162;2023-01-29T11:54:36;10.10;45.40
48212;DHT22;34000;48.772;9.162;2023-01-29T11:57:02;10.30;45.20
48212;DHT22;34000;48.772;9.162;2023-01-29T12:00:02;10.40;45.00
48212;DHT22;34000;48.772;9.162;2023-01-29T12:02:34;10.30;44.80
48212;DHT22;34000;48.772;9.162;2023-01-29T12:05:04;10.10;45.10
48212;DHT22;34000;48.772;9.162;2023-01-29T12:07:30;10.00;45.10
48212;DHT22;34000;48.772;9.162;2023-01-29T12:09:57;9.80;45.20
48212;DHT22;34000;48.772;9.162;2023-01-29T12:15:01;9.70;45.60
48212;DHT22;34000;48.772;9.162;2023-01-29T12:17:27;9.70;45.80
48212;DHT22;34000;48.772;9.162;2023-01-29T12:19:55;9.70;45.60
48212;DHT22;34000;48.772;9.162;2023-01-29T12:22:24;9.70;45.60
48212;DHT22;34000;48.772;9.162;2023-01-29T12:24:53;9.70;45.40
48212;DHT22;34000;48.772;9.162;2023-01-29T12:29:51;10.00;45.70
48212;DHT22;34000;48.772;9.162;2023-01-29T12:34:53;10.90;45.30
48212;DHT22;34000;48.772;9.162;2023-01-29T12:37:24;11.40;44.50
48212;DHT22;34000;48.772;9.162;2023-01-29T12:39:52;11.40;43.70
48212;DHT22;34000;48.772;9.162;2023-01-29T12:42:19;11.40;43.60
48212;DHT22;34000;48.772;9.162;2023-01-29T12:44:46;11.50;43.80
48212;DHT22;34000;48.772;9.162;2023-01-29T12:47:21;11.50;43.60
48212;DHT22;34000;48.772;9.162;2023-01-29T12:49:49;11.30;43.30
48212;DHT22;34000;48.772;9.162;2023-01-29T12:52:17;11.40;43.80
48212;DHT22;34000;48.772;9.162;2023-01-29T12:54:48;11.20;43.70
48212;DHT22;34000;48.772;9.162;2023-01-29T13:00:02;11.50;49.50
48212;DHT22;34000;48.772;9.162;2023-01-29T13:02:43;11.30;44.00
48212;DHT22;34000;48.772;9.162;2023-01-29T13:05:23;11.40;51.40
48212;DHT22;34000;48.772;9.162;2023-01-29T13:10:17;10.90;63.20
48212;DHT22;34000;48.772;9.162;2023-01-29T13:12:54;11.10;49.30
48212;DHT22;34000;48.772;9.162;2023-01-29T13:15:21;11.00;48.80
48212;DHT22;34000;48.772;9.162;2023-01-29T13:17:50;11.20;48.70
48212;DHT22;34000;48.772;9.162;2023-01-29T13:20:25;10.80;45.10
48212;DHT22;34000;48.772;9.162;2023-01-29T13:22:51;10.80;47.60
48212;DHT22;34000;48.772;9.162;2023-01-29T13:25:18;10.70;44.80
48212;DHT22;34000;48.772;9.162;2023-01-29T13:27:44;10.70;44.30
48212;DHT22;34000;48.772;9.162;2023-01-29T13:32:50;10.80;44.10
48212;DHT22;34000;48.772;9.162;2023-01-29T13:35:16;10.80;44.10
48212;DHT22;34000;48.772;9.162;2023-01-29T13:37:47;11.10;53.10
48212;DHT22;34000;48.772;9.162;2023-01-29T13:42:48;11.20;46.00
48212;DHT22;34000;48.772;9.162;2023-01-29T13:45:21;11.50;46.30
48212;DHT22;34000;48.772;9.162;2023-01-29T13:47:48;11.30;46.40
48212;DHT22;34000;48.772;9.162;2023-01-29T13:50:24;11.60;51.40
48212;DHT22;34000;48.772;9.162;2023-01-29T13:52:56;11.60;43.80
48212;DHT22;34000;48.772;9.162;2023-01-29T13:55:36;11.80;43.60
48212;DHT22;34000;48.772;9.162;2023-01-29T13:58:04;12.00;43.30
48212;DHT22;34000;48.772;9.162;2023-01-29T14:10:28;12.00;42.70
48212;DHT22;34000;48.772;9.162;2023-01-29T14:20:39;11.30;43.00
48212;DHT22;34000;48.772;9.162;2023-01-29T14:23:15;11.10;43.10
48212;DHT22;34000;48.772;9.162;2023-01-29T14:25:44;10.90;43.30
48212;DHT22;34000;48.772;9.162;2023-01-29T14:28:14;10.70;43.50
48212;DHT22;34000;48.772;9.162;2023-01-29T14:30:42;10.50;43.50
48212;DHT22;34000;48.772;9.162;2023-01-29T14:33:18;10.30;43.70
48212;DHT22;34000;48.772;9.162;2023-01-29T14:35:48;10.20;43.80
48212;DHT22;34000;48.772;9.162;2023-01-29T14:38:14;10.10;43.90
48212;DHT22;34000;48.772;9.162;2023-01-29T14:40:40;10.00;44.10
48212;DHT22;34000;48.772;9.162;2023-01-29T14:43:19;10.00;44.10
48212;DHT22;34000;48.772;9.162;2023-01-29T14:45:46;10.00;44.10
48212;DHT22;34000;48.772;9.162;2023-01-29T14:50:42;10.00;48.00
48212;DHT22;34000;48.772;9.162;2023-01-29T14:53:20;9.80;44.10
48212;DHT22;34000;48.772;9.162;2023-01-29T14:58:36;9.50;44.10
48212;DHT22;34000;48.772;9.162;2023-01-29T15:00:59;9.40;44.20
48212;DHT22;34000;48.772;9.162;2023-01-29T15:05:51;9.30;44.30
48212;DHT22;34000;48.772;9.162;2023-01-29T15:08:22;9.30;44.30
48212;DHT22;34000;48.772;9.162;2023-01-29T15:10:58;9.20;44.30
48212;DHT22;34000;48.772;9.162;2023-01-29T15:13:46;9.30;46.50
48212;DHT22;34000;48.772;9.162;2023-01-29T15:16:16;9.00;44.40
48212;DHT22;34000;48.772;9.162;2023-01-29T15:18:43;9.00;44.50
48212;DHT22;34000;48.772;9.162;2023-01-29T15:21:10;8.90;44.50
48212;DHT22;34000;48.772;9.162;2023-01-29T15:23:36;8.90;44.60
48212;DHT22;34000;48.772;9.162;2023-01-29T15:26:21;8.90;44.60
48212;DHT22;34000;48.772;9.162;2023-01-29T15:28:54;8.70;44.60
48212;DHT22;34000;48.772;9.162;2023-01-29T15:31:20;8.60;44.70
48212;DHT22;34000;48.772;9.162;2023-01-29T15:33:46;8.60;44.80
48212;DHT22;34000;48.772;9.162;2023-01-29T15:36:30;8.60;44.80
48212;DHT22;34000;48.772;9.162;2023-01-29T15:41:34;8.50;44.90
48212;DHT22;34000;48.772;9.162;2023-01-29T15:43:59;8.40;44.90
48212;DHT22;34000;48.772;9.162;2023-01-29T15:46:34;8.40;45.00
48212;DHT22;34000;48.772;9.162;2023-01-29T15:49:04;8.40;45.10
48212;DHT22;34000;48.772;9.162;2023-01-29T15:51:31;8.40;45.10
48212;DHT22;34000;48.772;9.162;2023-01-29T15:53:58;8.40;45.80
48212;DHT22;34000;48.772;9.162;2023-01-29T15:56:28;8.30;47.10
48212;DHT22;34000;48.772;9.162;2023-01-29T15:58:54;8.30;45.20
48212;DHT22;34000;48.772;9.162;2023-01-29T16:01:24;8.20;45.20
48212;DHT22;34000;48.772;9.162;2023-01-29T16:03:49;8.10;45.20
48212;DHT22;34000;48.772;9.162;2023-01-29T16:08:41;8.10;73.80
48212;DHT22;34000;48.772;9.162;2023-01-29T16:11:08;8.00;52.60
48212;DHT22;34000;48.772;9.162;2023-01-29T16:13:34;7.90;45.50
48212;DHT22;34000;48.772;9.162;2023-01-29T16:16:01;7.90;45.60
48212;DHT22;34000;48.772;9.162;2023-01-29T16:18:29;7.90;45.60
48212;DHT22;34000;48.772;9.162;2023-01-29T16:20:56;7.80;45.60
48212;DHT22;34000;48.772;9.162;2023-01-29T16:23:26;7.80;45.70
48212;DHT22;34000;48.772;9.162;2023-01-29T16:26:00;7.80;45.80
48212;DHT22;34000;48.772;9.162;2023-01-29T16:28:26;7.60;45.80
48212;DHT22;34000;48.772;9.162;2023-01-29T16:30:56;7.70;51.70
48212;DHT22;34000;48.772;9.162;2023-01-29T16:33:22;7.70;52.10
48212;DHT22;34000;48.772;9.162;2023-01-29T16:35:52;7.70;51.10
48212;DHT22;34000;48.772;9.162;2023-01-29T16:38:26;7.50;46.10
48212;DHT22;34000;48.772;9.162;2023-01-29T16:43:44;7.50;46.10
48212;DHT22;34000;48.772;9.162;2023-01-29T16:46:17;7.40;46.20
48212;DHT22;34000;48.772;9.162;2023-01-29T16:48:43;7.50;50.60
48212;DHT22;34000;48.772;9.162;2023-01-29T16:51:14;7.60;52.40
48212;DHT22;34000;48.772;9.162;2023-01-29T16:53:51;7.30;46.40
48212;DHT22;34000;48.772;9.162;2023-01-29T16:56:17;7.50;51.30
48212;DHT22;34000;48.772;9.162;2023-01-29T16:58:48;7.60;54.90
48212;DHT22;34000;48.772;9.162;2023-01-29T17:01:14;7.30;48.50
48212;DHT22;34000;48.772;9.162;2023-01-29T17:03:39;7.20;46.40
48212;DHT22;34000;48.772;9.162;2023-01-29T17:06:11;7.20;46.40
48212;DHT22;34000;48.772;9.162;2023-01-29T17:08:41;7.20;46.50
48212;DHT22;34000;48.772;9.162;2023-01-29T17:11:07;7.20;46.60
48212;DHT22;34000;48.772;9.162;2023-01-29T17:13:34;7.10;46.60
48212;DHT22;34000;48.772;9.162;2023-01-29T17:16:01;7.10;46.70
48212;DHT22;34000;48.772;9.162;2023-01-29T17:18:27;7.10;46.90
48212;DHT22;34000;48.772;9.162;2023-01-29T17:20:52;7.00;46.80
48212;DHT22;34000;48.772;9.162;2023-01-29T17:23:18;7.00;47.10
48212;DHT22;34000;48.772;9.162;2023-01-29T17:25:44;7.00;49.50
48212;DHT22;34000;48.772;9.162;2023-01-29T17:28:14;7.00;47.00
48212;DHT22;34000;48.772;9.162;2023-01-29T17:30:40;6.90;47.00
48212;DHT22;34000;48.772;9.162;2023-01-29T17:33:10;7.00;51.70
48212;DHT22;34000;48.772;9.162;2023-01-29T17:35:36;7.00;58.10
48212;DHT22;34000;48.772;9.162;2023-01-29T17:42:53;6.80;58.60
48212;DHT22;34000;48.772;9.162;2023-01-29T17:45:19;6.70;67.20
48212;DHT22;34000;48.772;9.162;2023-01-29T17:47:44;6.70;58.70
48212;DHT22;34000;48.772;9.162;2023-01-29T17:50:23;6.00;48.40
48212;DHT22;34000;48.772;9.162;2023-01-29T17:52:50;6.00;70.20
48212;DHT22;34000;48.772;9.162;2023-01-29T17:55:15;5.80;48.90
48212;DHT22;34000;48.772;9.162;2023-01-29T17:57:41;5.70;49.10
48212;DHT22;34000;48.772;9.162;2023-01-29T18:00:25;5.80;52.00
48212;DHT22;34000;48.772;9.162;2023-01-29T18:02:50;5.80;56.60
48212;DHT22;34000;48.772;9.162;2023-01-29T18:05:17;5.70;52.10
48212;DHT22;34000;48.772;9.162;2023-01-29T18:10:16;5.50;48.70
48212;DHT22;34000;48.772;9.162;2023-01-29T18:12:42;5.50;49.30
48212;DHT22;34000;48.772;9.162;2023-01-29T18:15:08;5.50;49.50
48212;DHT22;34000;48.772;9.162;2023-01-29T18:17:33;5.40;49.50